KTCY

Tracy Municipal Airport

Tracy, California, USA
METAR KTCY 170015Z AUTO 00000KT 3SM BR FEW005 SCT044 BKN050 12/11 A3003 RMK A01
Observed Flight Rules
Dec-17 @ 00:15 UTC (27 minutes ago) Marginal Visual Flight Rules
Visibility Clouds Conditions
3 miles
  • Few at 500' AGL
  • Scattered at 4,400' AGL
  • Broken at 5,000' AGL
  • Mist
Temperatures Readings
Current 12°C / 54°F
Dewpoint 11°C / 52°F
Humidity 94%
Altimeter 30.03" Hg
Pressure 1017 hPa
METAR KTCY 170015Z AUTO 00000KT 3SM BR FEW005 SCT044 BKN050 12/11 A3003 RMK A01
Observed Flight Rules
Dec-17 @ 00:15 UTC
(27 minutes ago)
MVFR
Clouds
  • Few at 500' AGL
  • Scattered at 4,400' AGL
  • Broken at 5,000' AGL
Conditions
  • Mist
Temperature Dewpoint
12°C / 54°F 11°C / 52°F
Humidity Altimeter Pressure
94% 30.03" Hg 1017 hPa